KSNS/SNS METAR and TAF weather

Enter ICAO airport designator
Station Type Date Time Source
KSNS METAR 2021/09/24 05:53 UTC NOAA

KSNS 240553Z AUTO 00000KT 6SM BR OVC005 15/13 A2990 RMK AO2 SLP135 T01500133 10189 20144 50002


Station Type Date Time Source
KSNS Decoded METAR 2021/09/24 05:53 UTC NOAA

SALINAS MUNICIPAL AIRPORT, CA, United States (KSNS) 36-40N 121-36W 30M
Sep 24, 2021 - 01:53 AM EDT / 2021.09.24 0553 UTC
Wind: Calm:0
Visibility: 6 mile(s):0
Sky conditions: overcast
Weather: mist
Temperature: 59.0 F (15.0 C)
Dew Point: 55.9 F (13.3 C)
Relative Humidity: 89%
Pressure (altimeter): 29.9 in. Hg (1012 hPa)
Pressure tendency: 0.01 inches (0.2 hPa) higher than three hours ago
ob: KSNS 240553Z AUTO 00000KT 6SM BR OVC005 15/13 A2990 RMK AO2 SLP135 T01500133 10189 20144 50002
cycle: 6

Station Type Date Time Source
KSNS TAF 2021/09/24 06:27 UTC NOAA

TAF KSNS 240524Z 2406/2506 VRB05KT P6SM OVC005
FM240900 VRB05KT 4SM BR OVC003
TEMPO 2409/2413 1SM BR
FM241800 31012KT P6SM SKC
FM250400 32005KT 6SM BR OVC007

Example: see airport list